sensor_id;sensor_type;location;lat;lon;timestamp;P1;durP1;ratioP1;P2;durP2;ratioP2
65206;SDS011;58477;48.072;11.970;2022-11-15T00:00:07;11.52;;;8.27;;
65206;SDS011;58477;48.072;11.970;2022-11-15T00:02:53;9.95;;;7.72;;
65206;SDS011;58477;48.072;11.970;2022-11-15T00:05:37;10.65;;;7.68;;
65206;SDS011;58477;48.072;11.970;2022-11-15T00:08:21;9.77;;;7.30;;
65206;SDS011;58477;48.072;11.970;2022-11-15T00:11:05;11.50;;;7.82;;
65206;SDS011;58477;48.072;11.970;2022-11-15T00:13:50;10.75;;;7.53;;
65206;SDS011;58477;48.072;11.970;2022-11-15T00:16:34;12.27;;;7.72;;
65206;SDS011;58477;48.072;11.970;2022-11-15T00:19:18;11.73;;;7.80;;
65206;SDS011;58477;48.072;11.970;2022-11-15T00:22:02;12.50;;;7.32;;
65206;SDS011;58477;48.072;11.970;2022-11-15T00:24:46;12.20;;;7.50;;
65206;SDS011;58477;48.072;11.970;2022-11-15T00:27:30;11.45;;;7.70;;
65206;SDS011;58477;48.072;11.970;2022-11-15T00:30:14;13.27;;;6.80;;
65206;SDS011;58477;48.072;11.970;2022-11-15T00:33:04;10.60;;;6.85;;
65206;SDS011;58477;48.072;11.970;2022-11-15T00:35:49;9.73;;;6.30;;
65206;SDS011;58477;48.072;11.970;2022-11-15T00:38:34;9.65;;;6.25;;
65206;SDS011;58477;48.072;11.970;2022-11-15T00:41:19;10.23;;;6.00;;
65206;SDS011;58477;48.072;11.970;2022-11-15T00:44:03;9.73;;;5.18;;
65206;SDS011;58477;48.072;11.970;2022-11-15T00:46:47;8.15;;;4.88;;
65206;SDS011;58477;48.072;11.970;2022-11-15T00:49:31;6.32;;;4.80;;
65206;SDS011;58477;48.072;11.970;2022-11-15T00:52:15;5.68;;;4.72;;
65206;SDS011;58477;48.072;11.970;2022-11-15T00:54:59;10.23;;;4.47;;
65206;SDS011;58477;48.072;11.970;2022-11-15T00:57:44;6.70;;;4.45;;
65206;SDS011;58477;48.072;11.970;2022-11-15T01:00:28;5.40;;;4.40;;
65206;SDS011;58477;48.072;11.970;2022-11-15T01:03:12;4.47;;;4.05;;
65206;SDS011;58477;48.072;11.970;2022-11-15T01:05:58;6.97;;;3.70;;
65206;SDS011;58477;48.072;11.970;2022-11-15T01:08:43;7.85;;;4.20;;
65206;SDS011;58477;48.072;11.970;2022-11-15T01:11:27;4.32;;;3.42;;
65206;SDS011;58477;48.072;11.970;2022-11-15T01:14:11;4.78;;;4.20;;
65206;SDS011;58477;48.072;11.970;2022-11-15T01:16:55;8.13;;;3.40;;
65206;SDS011;58477;48.072;11.970;2022-11-15T01:19:43;6.07;;;3.95;;
65206;SDS011;58477;48.072;11.970;2022-11-15T01:22:27;4.95;;;3.70;;
65206;SDS011;58477;48.072;11.970;2022-11-15T01:25:11;6.63;;;4.00;;
65206;SDS011;58477;48.072;11.970;2022-11-15T01:27:55;5.18;;;3.90;;
65206;SDS011;58477;48.072;11.970;2022-11-15T01:30:42;6.63;;;3.50;;
65206;SDS011;58477;48.072;11.970;2022-11-15T01:33:27;4.97;;;3.85;;
65206;SDS011;58477;48.072;11.970;2022-11-15T01:36:19;7.30;;;4.35;;
65206;SDS011;58477;48.072;11.970;2022-11-15T01:39:07;5.50;;;4.05;;
65206;SDS011;58477;48.072;11.970;2022-11-15T01:41:51;5.00;;;4.28;;
65206;SDS011;58477;48.072;11.970;2022-11-15T01:44:49;9.20;;;4.57;;
65206;SDS011;58477;48.072;11.970;2022-11-15T01:47:35;6.65;;;4.07;;
65206;SDS011;58477;48.072;11.970;2022-11-15T01:50:27;5.40;;;3.83;;
65206;SDS011;58477;48.072;11.970;2022-11-15T01:53:14;5.47;;;3.72;;
65206;SDS011;58477;48.072;11.970;2022-11-15T01:56:01;4.15;;;3.60;;
65206;SDS011;58477;48.072;11.970;2022-11-15T01:58:48;4.10;;;2.78;;
65206;SDS011;58477;48.072;11.970;2022-11-15T02:01:33;4.35;;;3.50;;
65206;SDS011;58477;48.072;11.970;2022-11-15T02:04:22;4.47;;;3.63;;
65206;SDS011;58477;48.072;11.970;2022-11-15T02:07:09;3.88;;;3.25;;
65206;SDS011;58477;48.072;11.970;2022-11-15T02:09:56;7.68;;;3.70;;
65206;SDS011;58477;48.072;11.970;2022-11-15T02:12:46;4.70;;;3.33;;
65206;SDS011;58477;48.072;11.970;2022-11-15T02:15:33;5.85;;;3.80;;
65206;SDS011;58477;48.072;11.970;2022-11-15T02:18:32;5.20;;;3.60;;
65206;SDS011;58477;48.072;11.970;2022-11-15T02:21:25;5.03;;;3.75;;
65206;SDS011;58477;48.072;11.970;2022-11-15T02:24:42;5.57;;;3.65;;
65206;SDS011;58477;48.072;11.970;2022-11-15T02:30:45;5.20;;;3.67;;
65206;SDS011;58477;48.072;11.970;2022-11-15T02:33:36;4.55;;;3.78;;
65206;SDS011;58477;48.072;11.970;2022-11-15T02:36:36;6.65;;;3.63;;
65206;SDS011;58477;48.072;11.970;2022-11-15T02:39:28;4.97;;;3.67;;
65206;SDS011;58477;48.072;11.970;2022-11-15T02:42:16;5.22;;;3.78;;
65206;SDS011;58477;48.072;11.970;2022-11-15T02:45:27;4.40;;;3.47;;
65206;SDS011;58477;48.072;11.970;2022-11-15T02:48:16;5.13;;;3.30;;
65206;SDS011;58477;48.072;11.970;2022-11-15T02:51:01;4.93;;;3.17;;
65206;SDS011;58477;48.072;11.970;2022-11-15T02:53:46;3.70;;;3.05;;
65206;SDS011;58477;48.072;11.970;2022-11-15T02:56:31;9.20;;;3.35;;
65206;SDS011;58477;48.072;11.970;2022-11-15T02:59:22;5.20;;;3.22;;
65206;SDS011;58477;48.072;11.970;2022-11-15T03:08:09;5.15;;;3.10;;
65206;SDS011;58477;48.072;11.970;2022-11-15T03:11:08;6.65;;;3.78;;
65206;SDS011;58477;48.072;11.970;2022-11-15T03:16:58;5.30;;;3.40;;
65206;SDS011;58477;48.072;11.970;2022-11-15T03:19:50;4.57;;;3.35;;
65206;SDS011;58477;48.072;11.970;2022-11-15T03:22:37;4.47;;;3.47;;
65206;SDS011;58477;48.072;11.970;2022-11-15T03:25:25;4.70;;;3.67;;
65206;SDS011;58477;48.072;11.970;2022-11-15T03:28:12;4.00;;;3.47;;
65206;SDS011;58477;48.072;11.970;2022-11-15T03:31:00;4.05;;;3.28;;
65206;SDS011;58477;48.072;11.970;2022-11-15T03:34:06;5.10;;;3.20;;
65206;SDS011;58477;48.072;11.970;2022-11-15T03:36:54;5.40;;;3.38;;
65206;SDS011;58477;48.072;11.970;2022-11-15T03:39:38;4.70;;;3.58;;
65206;SDS011;58477;48.072;11.970;2022-11-15T03:45:21;6.63;;;4.07;;
65206;SDS011;58477;48.072;11.970;2022-11-15T03:48:18;5.20;;;3.95;;
65206;SDS011;58477;48.072;11.970;2022-11-15T03:51:09;6.78;;;4.18;;
65206;SDS011;58477;48.072;11.970;2022-11-15T03:53:54;7.43;;;4.55;;
65206;SDS011;58477;48.072;11.970;2022-11-15T03:56:38;5.63;;;3.95;;
65206;SDS011;58477;48.072;11.970;2022-11-15T03:59:22;5.60;;;3.95;;
65206;SDS011;58477;48.072;11.970;2022-11-15T04:02:07;5.60;;;4.47;;
65206;SDS011;58477;48.072;11.970;2022-11-15T04:04:51;5.63;;;4.22;;
65206;SDS011;58477;48.072;11.970;2022-11-15T04:07:35;7.10;;;4.40;;
65206;SDS011;58477;48.072;11.970;2022-11-15T04:10:19;5.78;;;3.95;;
65206;SDS011;58477;48.072;11.970;2022-11-15T04:13:03;5.55;;;4.20;;
65206;SDS011;58477;48.072;11.970;2022-11-15T04:15:47;5.97;;;4.10;;
65206;SDS011;58477;48.072;11.970;2022-11-15T04:18:32;6.68;;;4.38;;
65206;SDS011;58477;48.072;11.970;2022-11-15T04:21:16;6.38;;;4.15;;
65206;SDS011;58477;48.072;11.970;2022-11-15T04:24:18;6.03;;;3.97;;
65206;SDS011;58477;48.072;11.970;2022-11-15T04:27:02;7.20;;;4.50;;
65206;SDS011;58477;48.072;11.970;2022-11-15T04:29:47;6.28;;;3.90;;
65206;SDS011;58477;48.072;11.970;2022-11-15T04:32:31;4.72;;;3.47;;
65206;SDS011;58477;48.072;11.970;2022-11-15T04:35:15;5.00;;;3.90;;
65206;SDS011;58477;48.072;11.970;2022-11-15T04:37:59;5.15;;;3.38;;
65206;SDS011;58477;48.072;11.970;2022-11-15T04:40:44;7.63;;;3.35;;
65206;SDS011;58477;48.072;11.970;2022-11-15T04:43:28;4.70;;;3.78;;
65206;SDS011;58477;48.072;11.970;2022-11-15T04:46:13;5.65;;;3.30;;
65206;SDS011;58477;48.072;11.970;2022-11-15T04:48:57;3.67;;;2.67;;
65206;SDS011;58477;48.072;11.970;2022-11-15T04:51:41;3.90;;;3.13;;
65206;SDS011;58477;48.072;11.970;2022-11-15T04:54:25;4.32;;;3.58;;
65206;SDS011;58477;48.072;11.970;2022-11-15T04:57:09;5.85;;;4.15;;
65206;SDS011;58477;48.072;11.970;2022-11-15T04:59:53;5.32;;;3.47;;
65206;SDS011;58477;48.072;11.970;2022-11-15T05:02:38;5.07;;;3.60;;
65206;SDS011;58477;48.072;11.970;2022-11-15T05:05:41;4.35;;;3.90;;
65206;SDS011;58477;48.072;11.970;2022-11-15T05:08:25;5.53;;;3.45;;
65206;SDS011;58477;48.072;11.970;2022-11-15T05:11:09;6.25;;;2.92;;
65206;SDS011;58477;48.072;11.970;2022-11-15T05:13:53;3.70;;;3.25;;
65206;SDS011;58477;48.072;11.970;2022-11-15T05:16:38;2.10;;;1.90;;
65206;SDS011;58477;48.072;11.970;2022-11-15T05:19:22;4.50;;;2.67;;
65206;SDS011;58477;48.072;11.970;2022-11-15T05:22:07;5.28;;;2.70;;
65206;SDS011;58477;48.072;11.970;2022-11-15T05:24:51;3.40;;;2.42;;
65206;SDS011;58477;48.072;11.970;2022-11-15T05:27:35;4.20;;;2.85;;
65206;SDS011;58477;48.072;11.970;2022-11-15T05:30:19;5.05;;;2.75;;
65206;SDS011;58477;48.072;11.970;2022-11-15T05:33:03;4.88;;;3.47;;
65206;SDS011;58477;48.072;11.970;2022-11-15T05:35:54;5.22;;;3.45;;
65206;SDS011;58477;48.072;11.970;2022-11-15T05:38:43;4.10;;;3.28;;
65206;SDS011;58477;48.072;11.970;2022-11-15T05:41:32;3.60;;;2.88;;
65206;SDS011;58477;48.072;11.970;2022-11-15T05:44:19;2.38;;;2.17;;
65206;SDS011;58477;48.072;11.970;2022-11-15T05:47:06;5.10;;;3.15;;
65206;SDS011;58477;48.072;11.970;2022-11-15T05:49:53;2.92;;;2.17;;
65206;SDS011;58477;48.072;11.970;2022-11-15T05:52:37;7.72;;;2.17;;
65206;SDS011;58477;48.072;11.970;2022-11-15T05:55:22;3.83;;;2.67;;
65206;SDS011;58477;48.072;11.970;2022-11-15T05:58:06;3.60;;;2.65;;
65206;SDS011;58477;48.072;11.970;2022-11-15T06:00:51;3.13;;;2.28;;
65206;SDS011;58477;48.072;11.970;2022-11-15T06:03:35;4.32;;;2.40;;
65206;SDS011;58477;48.072;11.970;2022-11-15T06:06:19;2.40;;;2.20;;
65206;SDS011;58477;48.072;11.970;2022-11-15T06:09:03;2.80;;;2.22;;
65206;SDS011;58477;48.072;11.970;2022-11-15T06:11:47;7.53;;;2.78;;
65206;SDS011;58477;48.072;11.970;2022-11-15T06:14:32;3.92;;;3.30;;
65206;SDS011;58477;48.072;11.970;2022-11-15T06:17:16;6.53;;;3.58;;
65206;SDS011;58477;48.072;11.970;2022-11-15T06:20:00;4.45;;;3.30;;
65206;SDS011;58477;48.072;11.970;2022-11-15T06:22:44;6.57;;;3.42;;
65206;SDS011;58477;48.072;11.970;2022-11-15T06:25:28;6.03;;;4.28;;
65206;SDS011;58477;48.072;11.970;2022-11-15T06:28:13;7.65;;;3.30;;
65206;SDS011;58477;48.072;11.970;2022-11-15T06:31:04;3.70;;;2.95;;
65206;SDS011;58477;48.072;11.970;2022-11-15T06:33:49;5.28;;;3.67;;
65206;SDS011;58477;48.072;11.970;2022-11-15T06:36:34;5.43;;;2.95;;
65206;SDS011;58477;48.072;11.970;2022-11-15T06:39:18;4.95;;;3.53;;
65206;SDS011;58477;48.072;11.970;2022-11-15T06:42:03;5.47;;;3.85;;
65206;SDS011;58477;48.072;11.970;2022-11-15T06:44:47;7.55;;;3.63;;
65206;SDS011;58477;48.072;11.970;2022-11-15T06:47:31;4.82;;;3.70;;
65206;SDS011;58477;48.072;11.970;2022-11-15T06:50:15;6.65;;;4.25;;
65206;SDS011;58477;48.072;11.970;2022-11-15T06:53:05;6.32;;;3.83;;
65206;SDS011;58477;48.072;11.970;2022-11-15T06:55:49;6.20;;;3.55;;
65206;SDS011;58477;48.072;11.970;2022-11-15T06:58:33;4.63;;;3.22;;
65206;SDS011;58477;48.072;11.970;2022-11-15T07:01:18;3.33;;;3.03;;
65206;SDS011;58477;48.072;11.970;2022-11-15T07:04:02;4.95;;;3.45;;
65206;SDS011;58477;48.072;11.970;2022-11-15T07:06:47;4.95;;;3.90;;
65206;SDS011;58477;48.072;11.970;2022-11-15T07:09:31;5.97;;;3.55;;
65206;SDS011;58477;48.072;11.970;2022-11-15T07:12:15;4.95;;;3.67;;
65206;SDS011;58477;48.072;11.970;2022-11-15T07:15:00;4.60;;;3.83;;
65206;SDS011;58477;48.072;11.970;2022-11-15T07:17:44;4.65;;;3.50;;
65206;SDS011;58477;48.072;11.970;2022-11-15T07:20:28;6.00;;;3.45;;
65206;SDS011;58477;48.072;11.970;2022-11-15T07:23:12;3.55;;;2.97;;
65206;SDS011;58477;48.072;11.970;2022-11-15T07:25:57;4.35;;;3.30;;
65206;SDS011;58477;48.072;11.970;2022-11-15T07:28:42;4.20;;;3.58;;
65206;SDS011;58477;48.072;11.970;2022-11-15T07:31:26;6.57;;;3.67;;
65206;SDS011;58477;48.072;11.970;2022-11-15T07:34:10;4.20;;;3.08;;
65206;SDS011;58477;48.072;11.970;2022-11-15T07:36:54;2.33;;;1.88;;
65206;SDS011;58477;48.072;11.970;2022-11-15T07:39:38;4.40;;;3.20;;
65206;SDS011;58477;48.072;11.970;2022-11-15T07:42:22;3.97;;;2.95;;
65206;SDS011;58477;48.072;11.970;2022-11-15T07:45:25;3.30;;;3.00;;
65206;SDS011;58477;48.072;11.970;2022-11-15T07:48:09;3.85;;;2.88;;
65206;SDS011;58477;48.072;11.970;2022-11-15T07:50:54;3.08;;;2.78;;
65206;SDS011;58477;48.072;11.970;2022-11-15T07:53:38;4.15;;;3.13;;
65206;SDS011;58477;48.072;11.970;2022-11-15T07:56:22;3.53;;;3.08;;
65206;SDS011;58477;48.072;11.970;2022-11-15T07:59:06;4.68;;;3.20;;
65206;SDS011;58477;48.072;11.970;2022-11-15T08:01:51;3.67;;;3.15;;
65206;SDS011;58477;48.072;11.970;2022-11-15T08:04:35;3.90;;;2.97;;
65206;SDS011;58477;48.072;11.970;2022-11-15T08:07:19;6.72;;;3.55;;
65206;SDS011;58477;48.072;11.970;2022-11-15T08:10:04;7.00;;;3.75;;
65206;SDS011;58477;48.072;11.970;2022-11-15T08:12:56;5.38;;;3.03;;
65206;SDS011;58477;48.072;11.970;2022-11-15T08:15:44;4.47;;;3.17;;
65206;SDS011;58477;48.072;11.970;2022-11-15T08:18:28;5.57;;;3.67;;
65206;SDS011;58477;48.072;11.970;2022-11-15T08:21:18;5.55;;;2.97;;
65206;SDS011;58477;48.072;11.970;2022-11-15T08:24:03;3.17;;;2.80;;
65206;SDS011;58477;48.072;11.970;2022-11-15T08:26:47;4.30;;;2.90;;
65206;SDS011;58477;48.072;11.970;2022-11-15T08:29:31;3.45;;;2.70;;
65206;SDS011;58477;48.072;11.970;2022-11-15T08:32:15;3.35;;;2.72;;
65206;SDS011;58477;48.072;11.970;2022-11-15T08:35:01;6.55;;;2.53;;
65206;SDS011;58477;48.072;11.970;2022-11-15T08:37:45;2.70;;;2.42;;
65206;SDS011;58477;48.072;11.970;2022-11-15T08:40:30;2.58;;;2.38;;
65206;SDS011;58477;48.072;11.970;2022-11-15T08:43:14;2.42;;;2.22;;
65206;SDS011;58477;48.072;11.970;2022-11-15T08:45:58;3.42;;;2.38;;
65206;SDS011;58477;48.072;11.970;2022-11-15T08:48:42;2.95;;;2.50;;
65206;SDS011;58477;48.072;11.970;2022-11-15T08:51:26;3.25;;;2.35;;
65206;SDS011;58477;48.072;11.970;2022-11-15T08:54:11;2.65;;;2.38;;
65206;SDS011;58477;48.072;11.970;2022-11-15T08:56:55;3.80;;;2.20;;
65206;SDS011;58477;48.072;11.970;2022-11-15T08:59:39;2.53;;;2.33;;
65206;SDS011;58477;48.072;11.970;2022-11-15T09:02:23;2.70;;;2.30;;
65206;SDS011;58477;48.072;11.970;2022-11-15T09:05:07;3.30;;;2.45;;
65206;SDS011;58477;48.072;11.970;2022-11-15T09:07:52;2.47;;;2.28;;
65206;SDS011;58477;48.072;11.970;2022-11-15T09:10:38;3.97;;;2.88;;
65206;SDS011;58477;48.072;11.970;2022-11-15T09:13:22;3.20;;;2.85;;
65206;SDS011;58477;48.072;11.970;2022-11-15T09:16:06;3.72;;;2.47;;
65206;SDS011;58477;48.072;11.970;2022-11-15T09:18:50;4.10;;;2.40;;
65206;SDS011;58477;48.072;11.970;2022-11-15T09:21:34;6.40;;;2.50;;
65206;SDS011;58477;48.072;11.970;2022-11-15T09:24:18;3.60;;;2.70;;
65206;SDS011;58477;48.072;11.970;2022-11-15T09:27:02;3.03;;;2.20;;
65206;SDS011;58477;48.072;11.970;2022-11-15T09:29:47;2.63;;;2.30;;
65206;SDS011;58477;48.072;11.970;2022-11-15T09:32:31;2.90;;;2.50;;
65206;SDS011;58477;48.072;11.970;2022-11-15T09:35:15;2.97;;;2.45;;
65206;SDS011;58477;48.072;11.970;2022-11-15T09:37:59;2.30;;;2.10;;
65206;SDS011;58477;48.072;11.970;2022-11-15T09:40:43;2.60;;;2.22;;
65206;SDS011;58477;48.072;11.970;2022-11-15T09:49:59;3.03;;;2.42;;
65206;SDS011;58477;48.072;11.970;2022-11-15T09:52:35;4.10;;;2.50;;
65206;SDS011;58477;48.072;11.970;2022-11-15T09:55:02;4.40;;;2.58;;
65206;SDS011;58477;48.072;11.970;2022-11-15T10:00:33;2.40;;;2.20;;
65206;SDS011;58477;48.072;11.970;2022-11-15T10:03:15;2.70;;;2.50;;
65206;SDS011;58477;48.072;11.970;2022-11-15T10:05:44;5.13;;;2.83;;
65206;SDS011;58477;48.072;11.970;2022-11-15T10:08:30;3.30;;;2.53;;
65206;SDS011;58477;48.072;11.970;2022-11-15T10:11:16;3.50;;;2.47;;
65206;SDS011;58477;48.072;11.970;2022-11-15T10:13:45;2.35;;;2.15;;
65206;SDS011;58477;48.072;11.970;2022-11-15T10:21:32;3.47;;;2.67;;
65206;SDS011;58477;48.072;11.970;2022-11-15T10:24:19;2.60;;;2.40;;
65206;SDS011;58477;48.072;11.970;2022-11-15T10:26:49;6.82;;;2.38;;
65206;SDS011;58477;48.072;11.970;2022-11-15T10:29:19;2.60;;;2.40;;
65206;SDS011;58477;48.072;11.970;2022-11-15T10:31:45;2.45;;;2.20;;
65206;SDS011;58477;48.072;11.970;2022-11-15T10:36:57;3.72;;;2.75;;
65206;SDS011;58477;48.072;11.970;2022-11-15T10:39:25;4.72;;;2.83;;
65206;SDS011;58477;48.072;11.970;2022-11-15T10:41:50;2.80;;;2.60;;
65206;SDS011;58477;48.072;11.970;2022-11-15T10:46:42;4.68;;;3.00;;
65206;SDS011;58477;48.072;11.970;2022-11-15T10:49:22;3.15;;;2.42;;
65206;SDS011;58477;48.072;11.970;2022-11-15T10:51:55;2.88;;;2.40;;
65206;SDS011;58477;48.072;11.970;2022-11-15T10:54:54;4.40;;;2.58;;
65206;SDS011;58477;48.072;11.970;2022-11-15T10:57:29;4.60;;;2.30;;
65206;SDS011;58477;48.072;11.970;2022-11-15T11:00:04;2.55;;;2.30;;
65206;SDS011;58477;48.072;11.970;2022-11-15T11:02:55;2.60;;;2.30;;
65206;SDS011;58477;48.072;11.970;2022-11-15T11:07:55;2.65;;;2.20;;
65206;SDS011;58477;48.072;11.970;2022-11-15T11:10:26;3.17;;;2.40;;
65206;SDS011;58477;48.072;11.970;2022-11-15T11:12:52;2.03;;;1.92;;
65206;SDS011;58477;48.072;11.970;2022-11-15T11:15:17;2.33;;;1.90;;
65206;SDS011;58477;48.072;11.970;2022-11-15T11:20:55;1.98;;;1.73;;
65206;SDS011;58477;48.072;11.970;2022-11-15T11:29:19;2.30;;;1.70;;
65206;SDS011;58477;48.072;11.970;2022-11-15T11:32:19;1.40;;;1.30;;
65206;SDS011;58477;48.072;11.970;2022-11-15T11:37:36;2.13;;;1.58;;
65206;SDS011;58477;48.072;11.970;2022-11-15T11:46:03;2.00;;;1.65;;
65206;SDS011;58477;48.072;11.970;2022-11-15T11:48:45;1.80;;;1.70;;
65206;SDS011;58477;48.072;11.970;2022-11-15T11:56:45;1.85;;;1.75;;
65206;SDS011;58477;48.072;11.970;2022-11-15T12:01:53;3.03;;;1.77;;
65206;SDS011;58477;48.072;11.970;2022-11-15T12:04:21;1.95;;;1.77;;
65206;SDS011;58477;48.072;11.970;2022-11-15T12:13:04;2.20;;;1.77;;
65206;SDS011;58477;48.072;11.970;2022-11-15T12:15:24;2.40;;;1.80;;
65206;SDS011;58477;48.072;11.970;2022-11-15T12:17:54;1.88;;;1.77;;
65206;SDS011;58477;48.072;11.970;2022-11-15T12:20:25;2.92;;;2.28;;
65206;SDS011;58477;48.072;11.970;2022-11-15T12:30:57;7.43;;;3.05;;
65206;SDS011;58477;48.072;11.970;2022-11-15T12:36:01;3.17;;;2.53;;
65206;SDS011;58477;48.072;11.970;2022-11-15T12:41:26;2.75;;;2.55;;
65206;SDS011;58477;48.072;11.970;2022-11-15T12:43:56;5.43;;;2.70;;
65206;SDS011;58477;48.072;11.970;2022-11-15T12:56:48;4.15;;;2.47;;
65206;SDS011;58477;48.072;11.970;2022-11-15T13:17:57;3.10;;;2.65;;
65206;SDS011;58477;48.072;11.970;2022-11-15T13:20:26;4.63;;;2.72;;
65206;SDS011;58477;48.072;11.970;2022-11-15T13:28:11;6.45;;;3.08;;
65206;SDS011;58477;48.072;11.970;2022-11-15T13:33:15;3.42;;;2.95;;
65206;SDS011;58477;48.072;11.970;2022-11-15T13:35:45;3.55;;;3.20;;
65206;SDS011;58477;48.072;11.970;2022-11-15T13:38:33;6.25;;;3.22;;
65206;SDS011;58477;48.072;11.970;2022-11-15T13:41:11;3.28;;;2.97;;
65206;SDS011;58477;48.072;11.970;2022-11-15T13:43:43;5.20;;;3.25;;
65206;SDS011;58477;48.072;11.970;2022-11-15T13:48:34;3.50;;;3.15;;
65206;SDS011;58477;48.072;11.970;2022-11-15T13:51:01;5.68;;;3.60;;
65206;SDS011;58477;48.072;11.970;2022-11-15T13:53:31;4.22;;;3.47;;
65206;SDS011;58477;48.072;11.970;2022-11-15T13:55:58;4.07;;;3.55;;
65206;SDS011;58477;48.072;11.970;2022-11-15T13:58:24;4.15;;;3.45;;
65206;SDS011;58477;48.072;11.970;2022-11-15T14:00:59;9.73;;;4.20;;
65206;SDS011;58477;48.072;11.970;2022-11-15T14:03:27;7.32;;;3.47;;
65206;SDS011;58477;48.072;11.970;2022-11-15T14:06:05;4.28;;;3.72;;
65206;SDS011;58477;48.072;11.970;2022-11-15T14:08:35;4.30;;;3.78;;
65206;SDS011;58477;48.072;11.970;2022-11-15T14:11:17;4.18;;;3.78;;
65206;SDS011;58477;48.072;11.970;2022-11-15T14:16:40;9.68;;;4.22;;
65206;SDS011;58477;48.072;11.970;2022-11-15T14:19:11;3.70;;;3.35;;
65206;SDS011;58477;48.072;11.970;2022-11-15T14:24:47;5.10;;;3.83;;
65206;SDS011;58477;48.072;11.970;2022-11-15T14:27:30;5.68;;;4.00;;
65206;SDS011;58477;48.072;11.970;2022-11-15T14:29:56;5.15;;;3.80;;
65206;SDS011;58477;48.072;11.970;2022-11-15T14:32:23;5.53;;;4.10;;
65206;SDS011;58477;48.072;11.970;2022-11-15T14:34:54;5.90;;;4.43;;
65206;SDS011;58477;48.072;11.970;2022-11-15T14:37:23;6.03;;;4.72;;
65206;SDS011;58477;48.072;11.970;2022-11-15T14:39:50;4.88;;;4.05;;
65206;SDS011;58477;48.072;11.970;2022-11-15T14:42:17;6.30;;;4.45;;
65206;SDS011;58477;48.072;11.970;2022-11-15T14:44:43;5.03;;;4.13;;
65206;SDS011;58477;48.072;11.970;2022-11-15T14:47:09;5.63;;;4.25;;
65206;SDS011;58477;48.072;11.970;2022-11-15T14:49:34;7.00;;;4.05;;
65206;SDS011;58477;48.072;11.970;2022-11-15T14:52:00;11.52;;;4.82;;
65206;SDS011;58477;48.072;11.970;2022-11-15T14:54:25;6.32;;;5.05;;
65206;SDS011;58477;48.072;11.970;2022-11-15T14:56:51;9.32;;;4.88;;
65206;SDS011;58477;48.072;11.970;2022-11-15T14:59:16;8.35;;;4.88;;
65206;SDS011;58477;48.072;11.970;2022-11-15T15:01:42;8.45;;;4.90;;
65206;SDS011;58477;48.072;11.970;2022-11-15T15:04:08;11.63;;;5.00;;
65206;SDS011;58477;48.072;11.970;2022-11-15T15:06:35;5.60;;;4.55;;
65206;SDS011;58477;48.072;11.970;2022-11-15T15:09:01;5.35;;;4.70;;
65206;SDS011;58477;48.072;11.970;2022-11-15T15:11:27;7.38;;;4.80;;
65206;SDS011;58477;48.072;11.970;2022-11-15T15:13:55;10.88;;;5.70;;
65206;SDS011;58477;48.072;11.970;2022-11-15T15:16:22;6.63;;;5.20;;
65206;SDS011;58477;48.072;11.970;2022-11-15T15:18:49;7.63;;;5.40;;
65206;SDS011;58477;48.072;11.970;2022-11-15T15:21:22;10.05;;;5.50;;
65206;SDS011;58477;48.072;11.970;2022-11-15T15:23:49;8.85;;;5.35;;
65206;SDS011;58477;48.072;11.970;2022-11-15T15:26:14;9.18;;;5.40;;
65206;SDS011;58477;48.072;11.970;2022-11-15T15:28:40;8.23;;;6.18;;
65206;SDS011;58477;48.072;11.970;2022-11-15T15:31:06;10.07;;;6.32;;
65206;SDS011;58477;48.072;11.970;2022-11-15T15:33:32;14.93;;;8.02;;
65206;SDS011;58477;48.072;11.970;2022-11-15T15:35:58;13.60;;;7.28;;
65206;SDS011;58477;48.072;11.970;2022-11-15T15:38:24;12.88;;;7.80;;
65206;SDS011;58477;48.072;11.970;2022-11-15T15:40:50;12.15;;;7.60;;
65206;SDS011;58477;48.072;11.970;2022-11-15T15:43:15;13.20;;;8.48;;
65206;SDS011;58477;48.072;11.970;2022-11-15T15:45:41;16.17;;;9.52;;
65206;SDS011;58477;48.072;11.970;2022-11-15T15:48:10;14.68;;;9.35;;
65206;SDS011;58477;48.072;11.970;2022-11-15T15:50:37;16.75;;;9.60;;
65206;SDS011;58477;48.072;11.970;2022-11-15T15:53:03;22.73;;;11.35;;
65206;SDS011;58477;48.072;11.970;2022-11-15T15:55:30;17.17;;;11.23;;
65206;SDS011;58477;48.072;11.970;2022-11-15T15:57:56;15.43;;;9.93;;
65206;SDS011;58477;48.072;11.970;2022-11-15T16:00:23;14.68;;;9.30;;
65206;SDS011;58477;48.072;11.970;2022-11-15T16:02:50;15.63;;;10.75;;
65206;SDS011;58477;48.072;11.970;2022-11-15T16:05:16;15.38;;;10.60;;
65206;SDS011;58477;48.072;11.970;2022-11-15T16:07:42;16.90;;;9.85;;
65206;SDS011;58477;48.072;11.970;2022-11-15T16:10:24;16.52;;;8.45;;
65206;SDS011;58477;48.072;11.970;2022-11-15T16:12:52;14.88;;;9.35;;
65206;SDS011;58477;48.072;11.970;2022-11-15T16:15:19;18.25;;;10.75;;
65206;SDS011;58477;48.072;11.970;2022-11-15T16:17:52;19.42;;;11.60;;
65206;SDS011;58477;48.072;11.970;2022-11-15T16:22:53;17.45;;;9.82;;
65206;SDS011;58477;48.072;11.970;2022-11-15T16:25:19;17.00;;;9.82;;
65206;SDS011;58477;48.072;11.970;2022-11-15T16:27:44;16.38;;;10.13;;
65206;SDS011;58477;48.072;11.970;2022-11-15T16:30:14;20.52;;;9.77;;
65206;SDS011;58477;48.072;11.970;2022-11-15T16:32:41;13.10;;;8.95;;
65206;SDS011;58477;48.072;11.970;2022-11-15T16:35:10;12.77;;;8.02;;
65206;SDS011;58477;48.072;11.970;2022-11-15T16:37:39;17.00;;;8.95;;
65206;SDS011;58477;48.072;11.970;2022-11-15T16:40:27;22.73;;;12.80;;
65206;SDS011;58477;48.072;11.970;2022-11-15T16:42:58;14.90;;;9.70;;
65206;SDS011;58477;48.072;11.970;2022-11-15T16:45:27;20.13;;;10.40;;
65206;SDS011;58477;48.072;11.970;2022-11-15T16:47:54;18.48;;;11.07;;
65206;SDS011;58477;48.072;11.970;2022-11-15T16:50:22;16.60;;;10.43;;
65206;SDS011;58477;48.072;11.970;2022-11-15T16:52:52;14.32;;;9.55;;
65206;SDS011;58477;48.072;11.970;2022-11-15T16:55:20;15.07;;;9.00;;
65206;SDS011;58477;48.072;11.970;2022-11-15T16:57:47;17.33;;;10.13;;
65206;SDS011;58477;48.072;11.970;2022-11-15T17:00:13;13.88;;;9.00;;
65206;SDS011;58477;48.072;11.970;2022-11-15T17:02:43;16.30;;;9.95;;
65206;SDS011;58477;48.072;11.970;2022-11-15T17:05:10;15.45;;;9.90;;
65206;SDS011;58477;48.072;11.970;2022-11-15T17:07:36;16.35;;;9.43;;
65206;SDS011;58477;48.072;11.970;2022-11-15T17:10:02;13.88;;;9.00;;
65206;SDS011;58477;48.072;11.970;2022-11-15T17:12:28;13.27;;;9.32;;
65206;SDS011;58477;48.072;11.970;2022-11-15T17:14:55;15.65;;;10.80;;
65206;SDS011;58477;48.072;11.970;2022-11-15T17:17:21;22.40;;;14.38;;
65206;SDS011;58477;48.072;11.970;2022-11-15T17:19:47;54.85;;;30.85;;
65206;SDS011;58477;48.072;11.970;2022-11-15T17:22:12;28.73;;;15.98;;
65206;SDS011;58477;48.072;11.970;2022-11-15T17:24:38;34.60;;;19.63;;
65206;SDS011;58477;48.072;11.970;2022-11-15T17:27:04;45.78;;;23.35;;
65206;SDS011;58477;48.072;11.970;2022-11-15T17:29:29;29.45;;;14.82;;
65206;SDS011;58477;48.072;11.970;2022-11-15T17:31:54;23.67;;;13.68;;
65206;SDS011;58477;48.072;11.970;2022-11-15T17:34:20;21.20;;;12.10;;
65206;SDS011;58477;48.072;11.970;2022-11-15T17:36:45;22.13;;;12.00;;
65206;SDS011;58477;48.072;11.970;2022-11-15T17:39:11;20.38;;;11.43;;
65206;SDS011;58477;48.072;11.970;2022-11-15T17:41:37;16.98;;;11.45;;
65206;SDS011;58477;48.072;11.970;2022-11-15T17:44:02;27.52;;;14.40;;
65206;SDS011;58477;48.072;11.970;2022-11-15T17:46:28;20.42;;;12.95;;
65206;SDS011;58477;48.072;11.970;2022-11-15T17:48:54;19.13;;;11.40;;
65206;SDS011;58477;48.072;11.970;2022-11-15T17:51:20;16.58;;;10.20;;